Terminal Aerodrome Forecast
Issued by NWS Sterling, VA

Current Version | Previous Version | Graphics & Text | Print | Product List | Glossary On
Versions: 1 2 3 4 5 6 7 8 9 10 11 12 13 14 15 16 17 18 19 20 21 22 23 24
757
FTUS41 KLWX 121720
TAFDCA
TAF
KDCA 121720Z 1218/1318 20007KT P6SM BKN050
     FM130100 19005KT 5SM -SHSN SCT008 OVC050
     FM130300 25005KT P6SM BKN050
     FM130700 29012G20KT P6SM BKN050
     FM131000 31018G35KT P6SM SCT050=

USA.gov is the U.S. government's official web portal to all federal, state and local government web resources and services.